createdAt,value
2019-06-07T00:01:37.575Z,52.19
2019-06-07T00:04:08.545Z,52.25
2019-06-07T00:06:35.304Z,52.21
2019-06-07T00:09:04.348Z,52.20
2019-06-07T00:11:32.374Z,52.23
2019-06-07T00:14:00.346Z,52.29
2019-06-07T00:16:28.517Z,52.23
2019-06-07T00:18:56.583Z,52.14
2019-06-07T00:22:10.744Z,52.10
2019-06-07T00:23:54.447Z,52.04
2019-06-07T00:26:22.550Z,52.10
2019-06-07T00:28:50.624Z,52.10
2019-06-07T00:31:24.045Z,52.02
2019-06-07T00:33:48.351Z,51.99
2019-06-07T00:36:18.267Z,51.89
2019-06-07T00:38:46.084Z,52.00
2019-06-07T00:41:14.995Z,51.93
2019-06-07T00:43:43.806Z,51.87
2019-06-07T00:46:14.382Z,51.92
2019-06-07T00:48:41.614Z,51.86
2019-06-07T00:51:11.259Z,51.88
2019-06-07T00:53:39.522Z,51.81
2019-06-07T00:56:07.603Z,51.89
2019-06-07T00:58:35.659Z,52.01
2019-06-07T01:01:03.834Z,51.93
2019-06-07T01:03:31.907Z,51.87
2019-06-07T01:06:00.061Z,51.89
2019-06-07T01:08:30.156Z,51.85
2019-06-07T01:10:57.704Z,51.78
2019-06-07T01:13:27.047Z,51.82
2019-06-07T01:15:55.433Z,51.80
2019-06-07T01:18:37.856Z,51.87
2019-06-07T01:20:53.226Z,51.82
2019-06-07T01:24:03.291Z,51.69
2019-06-07T01:25:51.024Z,51.66
2019-06-07T01:28:21.423Z,51.68
2019-06-07T01:30:48.871Z,51.68
2019-06-07T01:33:18.291Z,51.54
2019-06-07T01:35:46.450Z,51.46
2019-06-07T01:38:14.494Z,51.52
2019-06-07T01:40:42.578Z,51.69
2019-06-07T01:43:10.573Z,51.58
2019-06-07T01:45:38.655Z,51.60
2019-06-07T01:48:06.652Z,51.51
2019-06-07T01:50:34.631Z,51.45
2019-06-07T01:53:02.768Z,51.48
2019-06-07T01:55:32.753Z,51.62
2019-06-07T01:58:00.520Z,51.38
2019-06-07T02:00:32.104Z,51.35
2019-06-07T02:02:58.358Z,51.24
2019-06-07T02:05:30.439Z,51.29
2019-06-07T02:07:56.134Z,51.21
2019-06-07T02:10:27.982Z,51.09
2019-06-07T02:12:53.936Z,51.14
2019-06-07T02:15:25.036Z,51.09
2019-06-07T02:17:51.919Z,51.13
2019-06-07T02:20:20.351Z,51.03
2019-06-07T02:22:49.047Z,51.07
2019-06-07T02:25:37.346Z,51.00
2019-06-07T02:27:47.086Z,50.98
2019-06-07T02:32:44.815Z,51.10
2019-06-07T02:35:12.791Z,50.86
2019-06-07T02:37:40.943Z,50.88
2019-06-07T02:40:08.951Z,50.93
2019-06-07T02:42:41.913Z,50.91
2019-06-07T02:45:06.741Z,50.87
2019-06-07T02:47:37.917Z,50.84
2019-06-07T02:50:05.088Z,50.85
2019-06-07T02:52:38.708Z,50.86
2019-06-07T02:55:02.808Z,50.67
2019-06-07T02:57:36.972Z,50.72
2019-06-07T03:00:07.553Z,50.66
2019-06-07T03:02:33.280Z,50.75
2019-06-07T03:05:00.029Z,50.70
2019-06-07T03:07:30.042Z,50.62
2019-06-07T03:09:57.798Z,50.63
2019-06-07T03:12:26.565Z,50.66
2019-06-07T03:14:54.726Z,50.63
2019-06-07T03:17:38.904Z,50.67
2019-06-07T03:20:07.948Z,50.56
2019-06-07T03:22:39.923Z,50.56
2019-06-07T03:25:06.060Z,50.65
2019-06-07T03:27:41.521Z,50.63
2019-06-07T03:30:35.039Z,50.55
2019-06-07T03:32:38.606Z,50.51
2019-06-07T03:35:03.187Z,50.66
2019-06-07T03:37:37.583Z,50.55
2019-06-07T03:40:00.904Z,50.51
2019-06-07T03:42:29.246Z,50.48
2019-06-07T03:44:57.361Z,50.50
2019-06-07T03:47:25.463Z,50.46
2019-06-07T03:49:54.208Z,50.53
2019-06-07T03:52:22.239Z,50.40
2019-06-07T03:54:50.220Z,50.46
2019-06-07T03:57:18.287Z,50.46
2019-06-07T03:59:46.379Z,50.47
2019-06-07T04:02:14.536Z,50.52
2019-06-07T04:04:42.609Z,50.43
2019-06-07T04:07:10.586Z,50.45
2019-06-07T04:09:42.501Z,50.48
2019-06-07T04:12:08.236Z,50.50
2019-06-07T04:14:38.519Z,50.42
2019-06-07T04:17:05.929Z,50.42
2019-06-07T04:19:37.265Z,50.51
2019-06-07T04:22:03.880Z,50.45
2019-06-07T04:24:34.692Z,50.40
2019-06-07T04:27:01.715Z,50.42
2019-06-07T04:29:34.101Z,50.48
2019-06-07T04:31:59.509Z,50.51
2019-06-07T04:34:29.321Z,50.53
2019-06-07T04:36:59.618Z,50.46
2019-06-07T04:39:27.022Z,50.45
2019-06-07T04:41:55.310Z,50.56
2019-06-07T04:44:23.982Z,50.47
2019-06-07T04:46:52.048Z,50.51
2019-06-07T04:49:20.278Z,50.56
2019-06-07T04:51:48.338Z,50.56
2019-06-07T04:54:16.511Z,50.50
2019-06-07T04:56:44.938Z,50.57
2019-06-07T04:59:13.034Z,50.54
2019-06-07T05:01:42.728Z,50.54
2019-06-07T05:04:11.050Z,50.50
2019-06-07T05:06:40.332Z,50.50
2019-06-07T05:09:08.842Z,50.49
2019-06-07T05:11:39.308Z,50.51
2019-06-07T05:14:06.654Z,50.50
2019-06-07T05:16:36.824Z,50.54
2019-06-07T05:19:04.536Z,50.59
2019-06-07T05:21:56.056Z,50.57
2019-06-07T05:24:09.806Z,50.57
2019-06-07T05:26:33.050Z,50.60
2019-06-07T05:29:01.782Z,50.58
2019-06-07T05:31:31.077Z,50.54
2019-06-07T05:33:59.473Z,50.58
2019-06-07T05:36:27.522Z,50.98
2019-06-07T05:38:55.598Z,50.89
2019-06-07T05:41:23.583Z,50.85
2019-06-07T05:44:11.228Z,50.92
2019-06-07T05:46:21.354Z,51.03
2019-06-07T05:48:49.369Z,51.16
2019-06-07T05:51:17.463Z,51.25
2019-06-07T05:53:46.209Z,51.31
2019-06-07T05:56:15.147Z,51.36
2019-06-07T05:58:44.749Z,51.31
2019-06-07T06:01:52.410Z,51.24
2019-06-07T06:03:43.915Z,51.25
2019-06-07T06:06:12.152Z,51.21
2019-06-07T06:08:42.488Z,51.22
2019-06-07T06:11:10.057Z,51.16
2019-06-07T06:13:53.883Z,51.15
2019-06-07T06:16:07.766Z,51.29
2019-06-07T06:18:35.887Z,51.30
2019-06-07T06:21:18.809Z,51.29
2019-06-07T06:23:33.678Z,51.28
2019-06-07T06:26:01.758Z,51.25
2019-06-07T06:28:29.809Z,51.21
2019-06-07T06:30:57.916Z,51.14
2019-06-07T06:33:33.787Z,51.13
2019-06-07T06:35:55.701Z,51.12
2019-06-07T06:38:23.706Z,51.05
2019-06-07T06:41:05.234Z,51.02
2019-06-07T06:43:21.419Z,50.99
2019-06-07T06:45:50.656Z,51.18
2019-06-07T06:48:18.955Z,51.19
2019-06-07T06:50:51.844Z,51.21
2019-06-07T06:53:16.709Z,51.18
2019-06-07T06:55:49.254Z,51.06
2019-06-07T06:58:14.457Z,50.86
2019-06-07T07:00:52.279Z,50.71
2019-06-07T07:05:46.290Z,50.77
2019-06-07T07:08:13.450Z,50.74
2019-06-07T07:10:43.099Z,50.70
2019-06-07T07:13:11.535Z,50.57
2019-06-07T07:15:57.596Z,50.39
2019-06-07T07:18:09.438Z,50.42
2019-06-07T07:20:37.618Z,50.14
2019-06-07T07:23:05.815Z,50.01
2019-06-07T07:25:33.995Z,50.08
2019-06-07T07:28:01.974Z,49.88
2019-06-07T07:30:41.953Z,49.83
2019-06-07T07:33:10.151Z,49.60
2019-06-07T07:35:38.230Z,49.61
2019-06-07T07:38:06.373Z,49.71
2019-06-07T07:40:56.811Z,49.71
2019-06-07T07:43:04.512Z,49.57
2019-06-07T07:45:32.632Z,49.18
2019-06-07T07:48:14.769Z,49.31
2019-06-07T07:50:30.280Z,49.03
2019-06-07T07:53:00.486Z,49.16
2019-06-07T07:55:28.100Z,49.01
2019-06-07T07:58:01.638Z,49.18
2019-06-07T08:00:50.184Z,49.04
2019-06-07T08:02:58.860Z,48.92
2019-06-07T08:05:41.902Z,48.97
2019-06-07T08:08:00.283Z,48.84
2019-06-07T08:10:25.232Z,48.81
2019-06-07T08:13:18.191Z,48.47
2019-06-07T08:15:22.936Z,48.22
2019-06-07T08:17:57.116Z,48.53
2019-06-07T08:20:39.786Z,48.14
2019-06-07T08:23:07.846Z,48.29
2019-06-07T08:25:35.919Z,47.77
2019-06-07T08:28:03.935Z,48.25
2019-06-07T08:30:52.351Z,48.08
2019-06-07T08:33:24.681Z,47.96
2019-06-07T08:36:03.624Z,47.96
2019-06-07T08:38:25.109Z,48.22
2019-06-07T08:40:30.787Z,48.42
2019-06-07T08:43:13.071Z,48.18
2019-06-07T08:45:28.662Z,48.13
2019-06-07T08:48:01.669Z,47.98
2019-06-07T08:50:26.436Z,48.32
2019-06-07T08:53:00.061Z,47.97
2019-06-07T08:55:24.251Z,47.81
2019-06-07T08:57:57.644Z,47.53
2019-06-07T09:02:53.177Z,48.08
2019-06-07T09:05:21.591Z,47.87
2019-06-07T09:08:07.085Z,47.83
2019-06-07T09:10:19.362Z,48.17
2019-06-07T09:12:47.410Z,47.64
2019-06-07T09:15:23.400Z,48.00
2019-06-07T09:18:30.483Z,48.00
2019-06-07T09:20:35.910Z,47.63
2019-06-07T09:22:45.315Z,47.25
2019-06-07T09:25:20.887Z,47.23
2019-06-07T09:27:44.231Z,47.64
2019-06-07T09:30:18.399Z,47.65
2019-06-07T09:32:42.029Z,47.51
2019-06-07T09:35:16.452Z,47.47
2019-06-07T09:38:04.140Z,47.33
2019-06-07T09:40:21.734Z,47.71
2019-06-07T09:42:39.505Z,47.50
2019-06-07T09:45:11.673Z,47.31
2019-06-07T09:47:37.687Z,46.84
2019-06-07T09:50:11.305Z,47.35
2019-06-07T09:52:57.003Z,47.47
2019-06-07T09:55:21.741Z,47.42
2019-06-07T09:57:35.212Z,47.54
2019-06-07T10:00:33.603Z,47.61
2019-06-07T10:02:33.111Z,47.65
2019-06-07T10:05:04.020Z,47.20
2019-06-07T10:07:32.096Z,47.62
2019-06-07T10:12:30.123Z,47.34
2019-06-07T10:14:58.721Z,47.45
2019-06-07T10:17:26.808Z,47.46
2019-06-07T10:19:54.941Z,47.38
2019-06-07T10:22:23.024Z,47.45
2019-06-07T10:24:51.210Z,47.22
2019-06-07T10:27:19.195Z,47.36
2019-06-07T10:29:47.343Z,47.04
2019-06-07T10:32:15.430Z,47.25
2019-06-07T10:34:43.411Z,47.27
2019-06-07T10:37:15.159Z,47.06
2019-06-07T10:39:48.719Z,47.11
2019-06-07T10:42:11.604Z,47.26
2019-06-07T10:44:39.843Z,47.14
2019-06-07T10:47:08.196Z,47.02
2019-06-07T10:49:36.320Z,46.95
2019-06-07T10:52:06.614Z,46.86
2019-06-07T10:54:34.186Z,47.02
2019-06-07T10:57:02.922Z,47.18
2019-06-07T10:59:30.965Z,47.21
2019-06-07T11:01:59.042Z,47.39
2019-06-07T11:04:27.165Z,47.42
2019-06-07T11:06:55.192Z,47.65
2019-06-07T11:09:23.344Z,47.78
2019-06-07T11:11:51.321Z,47.90
2019-06-07T11:14:19.407Z,47.79
2019-06-07T11:16:47.394Z,47.85
2019-06-07T11:19:17.789Z,47.80
2019-06-07T11:21:45.262Z,47.94
2019-06-07T11:24:14.419Z,47.63
2019-06-07T11:26:42.607Z,47.58
2019-06-07T11:29:10.988Z,47.68
2019-06-07T11:31:39.379Z,47.74
2019-06-07T11:34:08.249Z,47.85
2019-06-07T11:36:36.419Z,47.85
2019-06-07T11:39:06.508Z,47.83
2019-06-07T11:41:34.576Z,47.89
2019-06-07T11:44:02.635Z,47.91
2019-06-07T11:46:30.749Z,48.05
2019-06-07T11:48:58.778Z,48.04
2019-06-07T11:51:26.783Z,48.03
2019-06-07T11:53:54.795Z,48.09
2019-06-07T11:56:22.868Z,48.18
2019-06-07T11:58:50.870Z,48.21
2019-06-07T12:01:18.918Z,48.14
2019-06-07T12:03:47.082Z,47.99
2019-06-07T12:06:16.390Z,47.94
2019-06-07T12:08:44.553Z,48.08
2019-06-07T12:11:12.595Z,48.20
2019-06-07T12:13:40.619Z,48.19
2019-06-07T12:16:09.128Z,48.24
2019-06-07T12:18:37.323Z,48.12
2019-06-07T12:21:05.303Z,48.17
2019-06-07T12:23:33.296Z,48.19
2019-06-07T12:26:01.271Z,48.24
2019-06-07T12:28:29.261Z,48.06
2019-06-07T12:30:57.238Z,47.96
2019-06-07T12:33:25.233Z,48.09
2019-06-07T12:35:53.267Z,48.12
2019-06-07T12:38:22.946Z,47.91
2019-06-07T12:40:57.626Z,47.68
2019-06-07T12:43:20.920Z,47.86
2019-06-07T12:45:48.943Z,48.06
2019-06-07T12:48:20.777Z,47.76
2019-06-07T12:50:46.610Z,47.86
2019-06-07T12:53:15.640Z,47.96
2019-06-07T12:55:43.840Z,48.01
2019-06-07T12:58:11.827Z,48.02
2019-06-07T13:00:39.827Z,47.97
2019-06-07T13:03:07.801Z,48.08
2019-06-07T13:05:35.871Z,48.07
2019-06-07T13:08:03.924Z,48.09
2019-06-07T13:10:32.003Z,47.95
2019-06-07T13:13:00.049Z,47.86
2019-06-07T13:15:28.300Z,48.06
2019-06-07T13:17:56.459Z,48.01
2019-06-07T13:20:24.794Z,48.15
2019-06-07T13:22:52.943Z,48.09
2019-06-07T13:25:21.692Z,48.07
2019-06-07T13:27:50.856Z,47.97
2019-06-07T13:30:19.065Z,47.94
2019-06-07T13:32:47.104Z,47.84
2019-06-07T13:35:15.689Z,47.91
2019-06-07T13:37:44.482Z,48.01
2019-06-07T13:40:12.654Z,47.95
2019-06-07T13:42:40.640Z,47.93
2019-06-07T13:45:08.711Z,47.92
2019-06-07T13:47:36.709Z,47.95
2019-06-07T13:50:05.090Z,47.79
2019-06-07T13:52:33.162Z,47.52
2019-06-07T13:55:02.451Z,47.72
2019-06-07T13:57:30.841Z,47.92
2019-06-07T13:59:58.830Z,47.99
2019-06-07T14:02:27.889Z,47.87
2019-06-07T14:04:56.540Z,47.82
2019-06-07T14:07:26.380Z,47.81
2019-06-07T14:09:54.207Z,47.71
2019-06-07T14:12:24.039Z,47.77
2019-06-07T14:14:52.037Z,47.69
2019-06-07T14:17:21.146Z,47.42
2019-06-07T14:19:49.195Z,47.33
2019-06-07T14:22:17.271Z,47.45
2019-06-07T14:24:45.327Z,47.68
2019-06-07T14:27:13.332Z,47.49
2019-06-07T14:29:41.415Z,47.38
2019-06-07T14:32:09.671Z,47.43
2019-06-07T14:34:37.688Z,47.36
2019-06-07T14:37:05.790Z,47.60
2019-06-07T14:39:33.787Z,47.43
2019-06-07T14:42:09.269Z,47.58
2019-06-07T14:44:31.690Z,47.48
2019-06-07T14:46:59.909Z,47.43
2019-06-07T14:49:28.209Z,47.57
2019-06-07T14:51:56.406Z,47.60
2019-06-07T14:54:24.609Z,47.57
2019-06-07T14:56:52.639Z,47.53
2019-06-07T14:59:20.683Z,47.29
2019-06-07T15:01:48.770Z,47.43
2019-06-07T15:04:16.783Z,47.34
2019-06-07T15:06:44.924Z,47.19
2019-06-07T15:09:12.974Z,47.04
2019-06-07T15:11:41.124Z,46.72
2019-06-07T15:14:09.257Z,46.80
2019-06-07T15:16:37.963Z,47.31
2019-06-07T15:19:06.174Z,47.20
2019-06-07T15:21:35.112Z,47.32
2019-06-07T15:24:03.156Z,47.27
2019-06-07T15:26:32.454Z,47.36
2019-06-07T15:29:00.680Z,47.11
2019-06-07T15:31:29.891Z,47.10
2019-06-07T15:33:58.043Z,47.14
2019-06-07T15:36:26.164Z,47.16
2019-06-07T15:38:54.216Z,47.18
2019-06-07T15:41:22.222Z,47.14
2019-06-07T15:43:50.289Z,47.24
2019-06-07T15:46:18.372Z,47.22
2019-06-07T15:48:46.414Z,47.15
2019-06-07T15:51:14.590Z,47.21
2019-06-07T15:53:44.751Z,47.18
2019-06-07T15:56:12.419Z,46.91
2019-06-07T15:58:41.374Z,46.81
2019-06-07T16:01:09.632Z,46.83
2019-06-07T16:03:38.045Z,46.62
2019-06-07T16:06:06.162Z,46.43
2019-06-07T16:08:34.349Z,46.70
2019-06-07T16:11:02.424Z,46.65
2019-06-07T16:13:30.495Z,46.68
2019-06-07T16:15:58.543Z,46.42
2019-06-07T16:18:26.669Z,46.55
2019-06-07T16:20:54.769Z,46.37
2019-06-07T16:23:22.827Z,46.58
2019-06-07T16:25:50.875Z,46.71
2019-06-07T16:28:18.955Z,46.68
2019-06-07T16:30:47.064Z,46.62
2019-06-07T16:33:15.518Z,46.41
2019-06-07T16:35:43.495Z,46.66
2019-06-07T16:38:11.490Z,46.55
2019-06-07T16:40:40.326Z,46.78
2019-06-07T16:45:44.873Z,46.92
2019-06-07T16:48:13.055Z,47.24
2019-06-07T16:50:41.059Z,47.38
2019-06-07T16:53:09.059Z,47.45
2019-06-07T16:55:38.389Z,47.56
2019-06-07T16:58:06.735Z,47.66
2019-06-07T17:00:34.706Z,47.70
2019-06-07T17:03:02.787Z,47.72
2019-06-07T17:05:30.783Z,47.52
2019-06-07T17:07:58.822Z,47.61
2019-06-07T17:10:26.866Z,47.64
2019-06-07T17:12:54.858Z,47.60
2019-06-07T17:15:22.848Z,47.40
2019-06-07T17:17:50.845Z,47.49
2019-06-07T17:20:18.994Z,47.41
2019-06-07T17:22:47.458Z,47.47
2019-06-07T17:25:15.643Z,47.51
2019-06-07T17:27:43.993Z,47.38
2019-06-07T17:30:12.071Z,47.52
2019-06-07T17:32:53.225Z,47.49
2019-06-07T17:35:09.843Z,47.53
2019-06-07T17:37:37.995Z,47.56
2019-06-07T17:40:06.056Z,47.61
2019-06-07T17:42:34.194Z,47.65
2019-06-07T17:45:02.261Z,47.70
2019-06-07T17:47:30.328Z,47.67
2019-06-07T17:49:58.522Z,47.88
2019-06-07T17:52:26.547Z,48.02
2019-06-07T17:54:54.678Z,48.11
2019-06-07T17:57:22.723Z,48.21
2019-06-07T17:59:50.795Z,48.25
2019-06-07T18:02:18.858Z,48.41
2019-06-07T18:04:47.291Z,48.55
2019-06-07T18:07:15.434Z,48.67
2019-06-07T18:09:43.446Z,48.78
2019-06-07T18:12:11.491Z,48.90
2019-06-07T18:14:39.538Z,48.96
2019-06-07T18:17:07.663Z,49.08
2019-06-07T18:19:35.728Z,49.17
2019-06-07T18:22:03.771Z,49.24
2019-06-07T18:24:31.907Z,49.35
2019-06-07T18:26:59.982Z,49.43
2019-06-07T18:29:28.067Z,49.51
2019-06-07T18:31:56.130Z,49.59
2019-06-07T18:34:24.211Z,49.69
2019-06-07T18:36:53.117Z,49.76
2019-06-07T18:39:21.285Z,49.82
2019-06-07T18:41:49.403Z,49.88
2019-06-07T18:44:21.699Z,49.97
2019-06-07T18:46:48.145Z,50.04
2019-06-07T18:49:16.251Z,50.11
2019-06-07T18:51:47.422Z,50.17
2019-06-07T18:54:15.515Z,50.22
2019-06-07T18:56:43.500Z,50.33
2019-06-07T18:59:11.552Z,50.48
2019-06-07T19:01:39.591Z,50.51
2019-06-07T19:04:07.599Z,50.47
2019-06-07T19:06:35.642Z,50.49
2019-06-07T19:09:04.107Z,50.53
2019-06-07T19:11:32.178Z,50.57
2019-06-07T19:14:00.194Z,50.59
2019-06-07T19:16:28.180Z,50.64
2019-06-07T19:18:56.226Z,50.71
2019-06-07T19:21:24.379Z,50.78
2019-06-07T19:23:52.379Z,50.86
2019-06-07T19:26:20.368Z,50.98
2019-06-07T19:28:48.438Z,51.16
2019-06-07T19:31:16.499Z,51.31
2019-06-07T19:33:49.098Z,51.44
2019-06-07T19:36:14.192Z,51.59
2019-06-07T19:38:42.351Z,51.82
2019-06-07T19:41:19.387Z,51.98
2019-06-07T19:43:40.131Z,52.17
2019-06-07T19:46:08.234Z,52.30
2019-06-07T19:48:36.298Z,52.42
2019-06-07T19:51:04.372Z,52.51
2019-06-07T19:53:32.403Z,52.59
2019-06-07T19:56:01.459Z,52.67
2019-06-07T19:58:29.510Z,52.72
2019-06-07T20:00:57.636Z,52.79
2019-06-07T20:03:25.822Z,52.87
2019-06-07T20:05:54.067Z,52.98
2019-06-07T20:08:22.300Z,53.00
2019-06-07T20:10:50.450Z,53.08
2019-06-07T20:13:19.202Z,53.19
2019-06-07T20:15:47.252Z,53.23
2019-06-07T20:18:15.302Z,53.24
2019-06-07T20:20:43.405Z,53.37
2019-06-07T20:23:11.461Z,53.26
2019-06-07T20:25:39.486Z,53.20
2019-06-07T20:28:07.604Z,53.20
2019-06-07T20:30:35.684Z,53.24
2019-06-07T20:33:04.021Z,53.17
2019-06-07T20:35:32.203Z,53.18
2019-06-07T20:38:01.091Z,53.21
2019-06-07T20:40:29.282Z,53.16
2019-06-07T20:42:57.513Z,53.13
2019-06-07T20:45:33.684Z,53.11
2019-06-07T20:47:55.415Z,53.19
2019-06-07T20:50:23.421Z,53.19
2019-06-07T20:52:51.606Z,53.13
2019-06-07T20:55:19.680Z,53.25
2019-06-07T20:57:47.734Z,53.18
2019-06-07T21:00:21.380Z,53.18
2019-06-07T21:02:45.530Z,53.10
2019-06-07T21:05:13.550Z,52.96
2019-06-07T21:07:41.561Z,52.90
2019-06-07T21:10:10.738Z,52.75
2019-06-07T21:12:39.056Z,52.63
2019-06-07T21:15:11.906Z,52.38
2019-06-07T21:17:36.801Z,52.53
2019-06-07T21:20:05.966Z,52.58
2019-06-07T21:22:34.538Z,52.59
2019-06-07T21:25:03.211Z,52.54
2019-06-07T21:27:31.445Z,52.61
2019-06-07T21:29:59.479Z,52.65
2019-06-07T21:32:27.463Z,52.68
2019-06-07T21:34:55.530Z,52.68
2019-06-07T21:37:23.623Z,52.73
2019-06-07T21:39:51.745Z,52.77
2019-06-07T21:42:19.827Z,52.75
2019-06-07T21:44:47.815Z,52.75
2019-06-07T21:47:15.823Z,52.85
2019-06-07T21:49:43.808Z,52.87
2019-06-07T21:52:12.907Z,52.96
2019-06-07T21:54:41.021Z,53.00
2019-06-07T21:57:09.057Z,52.97
2019-06-07T21:59:37.067Z,53.01
2019-06-07T22:02:05.502Z,53.04
2019-06-07T22:04:33.499Z,53.08
2019-06-07T22:07:01.568Z,53.03
2019-06-07T22:09:29.563Z,53.00
2019-06-07T22:11:57.563Z,52.99
2019-06-07T22:14:25.539Z,53.07
2019-06-07T22:16:53.642Z,53.18
2019-06-07T22:19:21.775Z,53.11
2019-06-07T22:22:02.246Z,53.24
2019-06-07T22:24:19.641Z,53.08
2019-06-07T22:26:47.721Z,53.08
2019-06-07T22:29:15.902Z,53.10
2019-06-07T22:31:43.908Z,53.15
2019-06-07T22:34:12.763Z,53.09
2019-06-07T22:36:40.967Z,53.04
2019-06-07T22:39:09.644Z,53.12
2019-06-07T22:41:37.748Z,53.11
2019-06-07T22:44:06.935Z,52.97
2019-06-07T22:46:37.711Z,52.97
2019-06-07T22:49:05.059Z,52.96
2019-06-07T22:51:33.082Z,52.99
2019-06-07T22:54:01.055Z,53.03
2019-06-07T22:56:34.497Z,53.13
2019-06-07T22:59:02.626Z,53.07
2019-06-07T23:01:30.702Z,53.13
2019-06-07T23:03:58.685Z,53.25
2019-06-07T23:06:26.855Z,53.26
2019-06-07T23:08:54.902Z,53.24
2019-06-07T23:11:22.911Z,53.22
2019-06-07T23:13:50.978Z,53.25
2019-06-07T23:16:19.888Z,53.19
2019-06-07T23:18:47.967Z,53.13
2019-06-07T23:21:16.076Z,53.11
2019-06-07T23:23:44.117Z,53.01
2019-06-07T23:26:12.258Z,53.12
2019-06-07T23:28:40.375Z,53.10
2019-06-07T23:31:08.454Z,53.06
2019-06-07T23:33:36.458Z,53.09
2019-06-07T23:36:04.520Z,53.09
2019-06-07T23:38:32.646Z,53.14
2019-06-07T23:41:00.787Z,53.10
2019-06-07T23:43:28.859Z,53.25
2019-06-07T23:45:56.875Z,53.13
2019-06-07T23:48:25.005Z,53.13
2019-06-07T23:50:53.002Z,53.04
2019-06-07T23:53:22.184Z,53.22
2019-06-07T23:55:50.449Z,53.14
2019-06-07T23:58:18.639Z,53.06
